Time;durP1;ratioP1;P1;durP2;ratioP2;P2;SDS_P1;SDS_P2;PMS_P1;PMS_P2;Temp;Humidity;BMP_temperature;BMP_pressure;BME280_temperature;BME280_humidity;BME280_pressure;Samples;Min_cycle;Max_cycle;Signal;HPM_P1;HPM_P2
2024/01/31 01:14:03;;;;;;;30.30;14.98;;;;;;;6.85;100.00;102765.63;4755296;23;20047;-79
2024/01/31 01:26:40;;;;;;;23.50;14.52;;;;;;;6.81;100.00;102766.69;5001820;23;20050;-82
2024/01/31 01:29:06;;;;;;;26.08;14.88;;;;;;;6.74;100.00;102771.38;4994171;28;20397;-81
2024/01/31 01:31:33;;;;;;;28.50;15.57;;;;;;;6.69;100.00;102770.75;4991313;28;20050;-80
2024/01/31 01:34:00;;;;;;;27.83;16.05;;;;;;;6.73;100.00;102774.06;4990746;28;20081;-80
2024/01/31 01:36:27;;;;;;;27.10;15.60;;;;;;;6.72;100.00;102772.38;4996225;28;20050;-80
2024/01/31 01:38:53;;;;;;;27.10;17.30;;;;;;;6.65;100.00;102777.88;4997245;28;20082;-80
2024/01/31 01:41:20;;;;;;;30.80;16.95;;;;;;;6.69;100.00;102781.16;4997397;28;20046;-80
2024/01/31 01:43:50;;;;;;;34.90;16.80;;;;;;;6.71;100.00;102784.53;4996889;28;20043;-79
2024/01/31 01:46:21;;;;;;;30.27;18.17;;;;;;;6.70;100.00;102787.22;4999147;28;20489;-80
2024/01/31 01:48:48;;;;;;;29.60;17.67;;;;;;;6.64;100.00;102777.97;4997769;28;20039;-80
2024/01/31 01:51:17;;;;;;;36.40;18.90;;;;;;;6.67;100.00;102790.81;4998930;28;20082;-80
2024/01/31 01:53:45;;;;;;;30.00;17.63;;;;;;;6.69;100.00;102794.19;4999225;28;20042;-81
2024/01/31 01:56:14;;;;;;;33.20;18.65;;;;;;;6.64;100.00;102798.78;4998697;28;20057;-80
2024/01/31 01:58:42;;;;;;;34.95;19.42;;;;;;;6.60;100.00;102797.28;4995317;28;20039;-81
2024/01/31 02:01:12;;;;;;;34.33;19.63;;;;;;;6.63;100.00;102807.50;4997449;28;20135;-81
2024/01/31 02:03:38;;;;;;;38.97;20.10;;;;;;;6.59;100.00;102800.78;4997933;28;20499;-81
2024/01/31 02:06:05;;;;;;;37.78;19.92;;;;;;;6.68;100.00;102807.28;4996637;28;20097;-81
2024/01/31 02:08:32;;;;;;;33.55;19.25;;;;;;;6.66;100.00;102807.34;4995952;28;20085;-82
2024/01/31 02:10:59;;;;;;;36.50;20.65;;;;;;;6.61;100.00;102798.97;5000910;28;20043;-81
2024/01/31 02:13:25;;;;;;;36.95;20.85;;;;;;;6.65;100.00;102800.47;4998727;28;20054;-82
2024/01/31 02:15:53;;;;;;;36.63;20.35;;;;;;;6.61;100.00;102810.22;4995471;28;20114;-82
2024/01/31 02:18:22;;;;;;;39.67;20.90;;;;;;;6.58;100.00;102809.50;4996532;28;20062;-81
2024/01/31 02:20:51;;;;;;;36.65;21.80;;;;;;;6.53;100.00;102807.16;4997003;28;20355;-82
2024/01/31 02:23:19;;;;;;;38.92;21.33;;;;;;;6.53;100.00;102798.50;4995766;28;20054;-81
2024/01/31 02:25:46;;;;;;;38.88;21.50;;;;;;;6.54;100.00;102807.97;4995812;28;20483;-82
2024/01/31 02:28:13;;;;;;;41.65;22.35;;;;;;;6.52;100.00;102804.63;4996245;28;20039;-81
2024/01/31 02:30:39;;;;;;;42.17;22.85;;;;;;;6.60;100.00;102815.50;4993798;28;20082;-79
2024/01/31 02:33:07;;;;;;;40.22;21.65;;;;;;;6.61;100.00;102814.56;4986809;28;20061;-79
2024/01/31 02:35:35;;;;;;;38.58;21.70;;;;;;;6.66;100.00;102823.78;4990923;28;20101;-79
2024/01/31 02:38:02;;;;;;;41.13;23.80;;;;;;;6.71;100.00;102820.13;4993114;28;20050;-79
2024/01/31 02:40:30;;;;;;;42.47;23.48;;;;;;;6.74;100.00;102805.19;4992917;28;20078;-80
2024/01/31 02:42:58;;;;;;;39.63;22.98;;;;;;;6.78;100.00;102804.13;4995639;28;20108;-80
2024/01/31 02:45:25;;;;;;;38.85;21.45;;;;;;;6.81;100.00;102801.38;4992481;28;20077;-80
2024/01/31 02:47:52;;;;;;;41.80;22.90;;;;;;;6.79;100.00;102800.59;4994105;28;20104;-80
2024/01/31 02:50:18;;;;;;;42.72;23.33;;;;;;;6.76;100.00;102798.16;4996968;28;20055;-79
2024/01/31 02:52:45;;;;;;;38.70;22.70;;;;;;;6.78;100.00;102801.53;4993205;28;20073;-79
2024/01/31 02:55:12;;;;;;;38.00;21.70;;;;;;;6.75;100.00;102798.22;4992277;28;20150;-79
2024/01/31 02:57:40;;;;;;;36.75;21.58;;;;;;;6.80;100.00;102799.69;4990747;28;20133;-79
2024/01/31 03:00:11;;;;;;;41.03;21.30;;;;;;;6.84;100.00;102800.38;4991952;28;20133;-79
2024/01/31 03:02:38;;;;;;;44.35;22.50;;;;;;;6.88;100.00;102799.28;4996521;28;20054;-81
2024/01/31 03:05:06;;;;;;;46.40;24.10;;;;;;;6.90;100.00;102794.84;4999984;28;20085;-80
2024/01/31 03:07:32;;;;;;;41.85;23.10;;;;;;;6.91;100.00;102793.94;4987517;28;20504;-80
2024/01/31 03:09:59;;;;;;;43.20;23.67;;;;;;;6.89;100.00;102791.41;4996770;28;20077;-81
2024/01/31 03:12:25;;;;;;;41.03;23.25;;;;;;;6.88;100.00;102796.69;4997120;28;20071;-81
2024/01/31 03:14:53;;;;;;;45.33;23.13;;;;;;;6.95;100.00;102798.91;4998993;28;20077;-81
2024/01/31 03:17:20;;;;;;;45.78;24.55;;;;;;;6.96;100.00;102804.94;4999445;28;20082;-80
2024/01/31 03:19:47;;;;;;;42.65;22.05;;;;;;;6.90;100.00;102793.09;4997330;28;20042;-80
2024/01/31 03:22:13;;;;;;;41.95;24.15;;;;;;;6.89;100.00;102791.41;4998351;28;20054;-81
2024/01/31 03:24:40;;;;;;;44.08;24.45;;;;;;;6.81;100.00;102796.16;4997198;28;20426;-81
2024/01/31 03:27:07;;;;;;;45.60;24.60;;;;;;;6.84;100.00;102797.78;4993320;28;20150;-80
2024/01/31 03:29:33;;;;;;;44.85;23.50;;;;;;;6.86;100.00;102798.53;4994447;28;20114;-81
2024/01/31 03:32:02;;;;;;;42.17;23.13;;;;;;;6.83;100.00;102796.09;4993332;28;20070;-81
2024/01/31 03:34:29;;;;;;;47.08;24.90;;;;;;;6.85;100.00;102804.66;4988826;28;20524;-80
2024/01/31 03:36:56;;;;;;;43.88;24.52;;;;;;;6.84;100.00;102798.63;4999300;28;20107;-80
2024/01/31 03:39:22;;;;;;;44.03;24.25;;;;;;;6.84;100.00;102801.22;5001408;28;20092;-80
2024/01/31 03:41:50;;;;;;;49.38;25.98;;;;;;;6.82;100.00;102808.25;5000280;28;20496;-81
2024/01/31 03:44:16;;;;;;;48.72;25.35;;;;;;;6.85;100.00;102813.31;5001300;28;20074;-79
2024/01/31 03:46:43;;;;;;;51.42;25.35;;;;;;;6.89;100.00;102820.03;4998693;28;20127;-81
2024/01/31 03:49:11;;;;;;;45.88;23.25;;;;;;;6.85;100.00;102822.88;5001106;28;20110;-80
2024/01/31 03:51:37;;;;;;;41.22;23.83;;;;;;;6.78;100.00;102817.13;5001518;28;20169;-80
2024/01/31 03:54:04;;;;;;;44.40;23.60;;;;;;;6.76;100.00;102834.59;5002524;28;20101;-80
2024/01/31 03:56:31;;;;;;;51.88;24.40;;;;;;;6.84;100.00;102827.22;4999759;28;20074;-80
2024/01/31 03:58:58;;;;;;;46.47;25.00;;;;;;;6.70;100.00;102824.47;5002396;28;20078;-80
2024/01/31 04:01:24;;;;;;;47.83;24.92;;;;;;;6.77;100.00;102832.81;4996162;28;20113;-80
2024/01/31 04:03:51;;;;;;;44.38;23.60;;;;;;;6.82;100.00;102833.44;5000962;28;20133;-81
2024/01/31 04:06:19;;;;;;;45.40;24.50;;;;;;;6.77;100.00;102838.88;4999886;28;20096;-80
2024/01/31 04:08:46;;;;;;;51.78;24.02;;;;;;;6.65;100.00;102829.91;4998840;28;20084;-79
2024/01/31 04:11:12;;;;;;;46.75;24.17;;;;;;;6.66;100.00;102833.34;4997638;28;20082;-80
2024/01/31 04:13:39;;;;;;;55.15;24.23;;;;;;;6.74;100.00;102843.38;5006682;28;20086;-79
2024/01/31 04:16:07;;;;;;;44.70;23.98;;;;;;;6.68;100.00;102841.94;5007877;28;20086;-79
2024/01/31 04:18:33;;;;;;;44.70;24.13;;;;;;;6.68;100.00;102852.34;5009490;28;20126;-79
2024/01/31 04:21:00;;;;;;;39.58;20.40;;;;;;;6.54;100.00;102834.84;5015393;28;20046;-79
2024/01/31 04:23:28;;;;;;;30.45;15.50;;;;;;;6.41;100.00;102840.72;5009138;28;20058;-79
2024/01/31 04:25:57;;;;;;;24.95;12.52;;;;;;;6.20;100.00;102825.22;4997174;28;20093;-80
2024/01/31 04:28:24;;;;;;;25.38;12.43;;;;;;;5.98;100.00;102816.78;5001727;28;20089;-81
2024/01/31 04:30:51;;;;;;;24.90;12.27;;;;;;;6.10;100.00;102831.81;5001160;28;20071;-80
2024/01/31 04:33:20;;;;;;;27.60;12.43;;;;;;;6.05;100.00;102814.75;4999514;28;20078;-81
2024/01/31 04:35:46;;;;;;;23.73;12.50;;;;;;;6.01;100.00;102808.84;4991661;28;20272;-79
2024/01/31 04:38:13;;;;;;;26.35;13.43;;;;;;;5.97;100.00;102812.50;5000319;28;20421;-80
2024/01/31 04:40:41;;;;;;;27.25;11.93;;;;;;;5.93;100.00;102810.97;4998033;28;20078;-79
2024/01/31 04:43:07;;;;;;;24.80;11.93;;;;;;;5.99;100.00;102808.09;4994161;28;20082;-80
2024/01/31 04:45:36;;;;;;;21.20;12.10;;;;;;;6.07;100.00;102811.16;4997474;28;20137;-79
2024/01/31 04:48:03;;;;;;;25.10;11.45;;;;;;;6.16;100.00;102804.66;4998861;28;20129;-79
2024/01/31 04:50:30;;;;;;;25.30;12.18;;;;;;;6.22;100.00;102819.94;4984331;28;20055;-80
2024/01/31 04:52:57;;;;;;;24.90;12.32;;;;;;;6.27;100.00;102820.56;4992359;28;20374;-80
2024/01/31 04:55:23;;;;;;;26.70;12.32;;;;;;;6.21;100.00;102810.47;5000078;28;20065;-80
2024/01/31 04:57:51;;;;;;;29.92;11.50;;;;;;;6.31;100.00;102822.13;4991780;28;20081;-79
2024/01/31 05:00:20;;;;;;;23.15;11.63;;;;;;;6.15;100.00;102805.56;5004051;28;20042;-81
2024/01/31 05:02:46;;;;;;;25.10;11.13;;;;;;;6.26;100.00;102813.69;4996106;28;20054;-79
2024/01/31 05:05:13;;;;;;;18.73;10.77;;;;;;;6.24;100.00;102810.31;4993284;28;20084;-79
2024/01/31 05:07:40;;;;;;;29.73;12.18;;;;;;;6.28;100.00;102817.06;4997322;28;20157;-79
2024/01/31 05:10:08;;;;;;;19.23;10.65;;;;;;;6.17;100.00;102814.97;4996435;28;20074;-79
2024/01/31 05:12:35;;;;;;;27.58;12.43;;;;;;;6.10;100.00;102813.63;4997273;28;20062;-80
2024/01/31 05:15:04;;;;;;;22.65;12.35;;;;;;;6.31;100.00;102825.56;4994258;28;20082;-79
2024/01/31 05:17:31;;;;;;;22.45;12.20;;;;;;;6.25;100.00;102820.66;4998709;28;20130;-79
2024/01/31 05:19:57;;;;;;;22.70;11.35;;;;;;;6.16;100.00;102823.69;4997373;28;20074;-80
2024/01/31 05:22:24;;;;;;;24.60;12.02;;;;;;;6.15;100.00;102824.59;4990535;28;20051;-80
2024/01/31 05:24:51;;;;;;;20.58;10.98;;;;;;;6.23;100.00;102835.47;4994922;28;20120;-79
2024/01/31 05:27:17;;;;;;;23.55;11.27;;;;;;;6.13;100.00;102821.28;4993032;28;20055;-80
2024/01/31 05:29:44;;;;;;;21.15;10.55;;;;;;;6.18;100.00;102816.66;4997049;28;20541;-80
2024/01/31 05:32:12;;;;;;;24.95;10.77;;;;;;;6.24;100.00;102811.16;4997406;28;20054;-80
2024/01/31 05:34:40;;;;;;;19.63;10.07;;;;;;;6.15;100.00;102806.41;4996094;28;20058;-80
2024/01/31 05:37:07;;;;;;;16.42;9.15;;;;;;;6.13;100.00;102812.63;4996011;28;20145;-80
2024/01/31 05:39:34;;;;;;;16.23;10.02;;;;;;;5.96;100.00;102800.44;4989539;28;20047;-80
2024/01/31 05:42:01;;;;;;;17.52;9.00;;;;;;;6.05;100.00;102807.78;4997971;28;20085;-79
2024/01/31 05:44:28;;;;;;;17.63;9.23;;;;;;;5.99;100.00;102800.28;4994543;28;20085;-79
2024/01/31 05:46:54;;;;;;;20.17;8.88;;;;;;;6.01;100.00;102797.63;4988618;28;20046;-79
2024/01/31 05:49:22;;;;;;;18.25;8.25;;;;;;;6.02;100.00;102807.09;4996983;28;20113;-80
2024/01/31 05:51:51;;;;;;;13.63;8.50;;;;;;;5.99;100.00;102802.88;4995964;28;20434;-80
2024/01/31 05:54:18;;;;;;;15.95;8.63;;;;;;;6.01;100.00;102808.00;4993915;28;20096;-80
2024/01/31 05:56:45;;;;;;;14.23;8.55;;;;;;;5.99;100.00;102811.53;4995387;28;20061;-80
2024/01/31 05:59:12;;;;;;;17.25;8.50;;;;;;;6.08;100.00;102817.22;4989346;28;20050;-80
2024/01/31 06:01:38;;;;;;;18.33;9.00;;;;;;;6.03;100.00;102806.19;4997618;28;20141;-80
2024/01/31 06:04:06;;;;;;;16.20;9.10;;;;;;;6.06;100.00;102809.47;4990130;28;20050;-81
2024/01/31 06:06:34;;;;;;;16.13;8.00;;;;;;;6.04;100.00;102811.31;4998384;28;20104;-80
2024/01/31 06:09:22;;;;;;;17.70;8.05;;;;;;;6.03;100.00;102806.19;4989494;28;20135;-82
2024/01/31 06:11:48;;;;;;;13.65;7.45;;;;;;;6.02;100.00;102815.75;4981823;28;20085;-81
2024/01/31 06:14:15;;;;;;;17.83;8.93;;;;;;;5.99;100.00;102808.09;4988806;28;20152;-82
2024/01/31 06:16:42;;;;;;;17.90;8.65;;;;;;;6.04;100.00;102802.66;4995698;28;20133;-81
2024/01/31 06:19:10;;;;;;;17.75;8.98;;;;;;;5.97;100.00;102807.31;4994999;28;20042;-81
2024/01/31 06:21:38;;;;;;;16.25;9.70;;;;;;;6.02;100.00;102815.75;4997192;28;20053;-79
2024/01/31 06:24:05;;;;;;;17.90;9.30;;;;;;;6.02;100.00;102814.91;4994138;28;20058;-81
2024/01/31 06:26:32;;;;;;;18.25;9.10;;;;;;;5.98;100.00;102815.03;4996793;28;20425;-81
2024/01/31 06:28:59;;;;;;;17.98;8.75;;;;;;;5.96;100.00;102814.28;4997122;28;20270;-80
2024/01/31 06:31:28;;;;;;;14.43;8.27;;;;;;;6.02;100.00;102820.94;4997056;28;20122;-78
2024/01/31 06:33:54;;;;;;;17.50;9.00;;;;;;;5.97;100.00;102817.72;4990655;28;20074;-79
2024/01/31 06:36:21;;;;;;;17.92;9.40;;;;;;;5.89;100.00;102817.22;4996795;28;20058;-81
2024/01/31 06:38:49;;;;;;;19.95;9.57;;;;;;;5.97;100.00;102822.91;4998294;28;20055;-80
2024/01/31 06:41:17;;;;;;;17.50;10.10;;;;;;;5.93;100.00;102821.38;4997050;28;20086;-79
2024/01/31 06:43:44;;;;;;;15.80;7.70;;;;;;;5.91;100.00;102825.78;4994246;28;20043;-80
2024/01/31 06:46:11;;;;;;;14.25;8.45;;;;;;;5.92;100.00;102825.72;4996688;28;20050;-80
2024/01/31 06:48:38;;;;;;;13.63;7.47;;;;;;;5.99;100.00;102831.47;4993288;28;20328;-79
2024/01/31 06:51:05;;;;;;;17.20;8.25;;;;;;;6.01;100.00;102829.66;4993699;28;20097;-78
2024/01/31 06:53:31;;;;;;;14.85;8.02;;;;;;;5.98;100.00;102830.63;4991478;28;20499;-79
2024/01/31 06:56:02;;;;;;;18.45;8.25;;;;;;;5.97;100.00;102815.97;4992610;28;20080;-80
2024/01/31 06:58:29;;;;;;;17.48;9.10;;;;;;;5.99;100.00;102828.88;4984907;28;20507;-80
2024/01/31 07:00:59;;;;;;;16.25;8.82;;;;;;;5.96;100.00;102814.28;4986841;28;20050;-81
2024/01/31 07:03:26;;;;;;;15.48;8.10;;;;;;;5.94;100.00;102823.91;4991511;28;20108;-81
2024/01/31 07:05:53;;;;;;;17.65;8.88;;;;;;;5.85;100.00;102829.47;4994034;28;20129;-79
2024/01/31 07:08:19;;;;;;;14.98;8.07;;;;;;;5.84;100.00;102832.16;4995024;28;20138;-80
2024/01/31 07:10:46;;;;;;;12.68;7.45;;;;;;;5.89;100.00;102827.63;4990055;28;20082;-79
2024/01/31 07:13:16;;;;;;;12.40;7.25;;;;;;;5.98;100.00;102842.78;4999319;28;20085;-79
2024/01/31 07:15:43;;;;;;;19.38;7.80;;;;;;;5.95;100.00;102835.13;4990144;28;20062;-78
2024/01/31 07:18:10;;;;;;;13.45;8.27;;;;;;;5.89;100.00;102835.41;4990716;28;20104;-79
2024/01/31 07:20:36;;;;;;;16.40;8.38;;;;;;;5.97;100.00;102843.69;4988423;28;20043;-79
2024/01/31 07:23:03;;;;;;;14.80;7.45;;;;;;;5.96;100.00;102829.03;4984855;28;20149;-79
2024/01/31 07:25:32;;;;;;;15.15;7.10;;;;;;;5.94;100.00;102825.66;5039596;23;20085;-79
2024/01/31 07:28:13;;;;;;;12.57;7.10;;;;;;;6.03;100.00;102820.03;4977678;28;20106;-80
2024/01/31 07:33:54;;;;;;;14.35;8.35;;;;;;;5.91;100.00;102799.81;4970675;28;20183;-80
2024/01/31 07:36:23;;;;;;;15.18;9.00;;;;;;;5.93;100.00;102806.63;4964138;28;20138;-80
2024/01/31 07:38:57;;;;;;;19.23;9.20;;;;;;;5.95;100.00;102804.78;4948145;29;20068;-80
2024/01/31 07:42:08;;;;;;;12.63;7.90;;;;;;;5.94;100.00;102802.25;4946785;29;20056;-80
2024/01/31 07:44:38;;;;;;;13.38;6.80;;;;;;;5.96;100.00;102805.63;4948849;29;20051;-81
2024/01/31 07:47:07;;;;;;;15.35;7.97;;;;;;;5.92;100.00;102799.75;4943384;29;20115;-81
2024/01/31 07:49:43;;;;;;;15.30;7.78;;;;;;;6.01;100.00;102806.25;4953138;29;20043;-80
2024/01/31 07:52:16;;;;;;;14.20;6.60;;;;;;;5.90;100.00;102798.97;4957841;29;20138;-82
2024/01/31 07:54:45;;;;;;;9.77;5.93;;;;;;;5.89;100.00;102796.44;4947656;29;20047;-82
2024/01/31 07:57:12;;;;;;;11.20;6.25;;;;;;;5.97;100.00;102796.91;4949223;29;20047;-82
2024/01/31 07:59:39;;;;;;;13.10;6.95;;;;;;;5.97;100.00;102786.53;4944454;29;20055;-82
2024/01/31 08:02:08;;;;;;;10.02;6.10;;;;;;;5.99;100.00;102785.53;4950096;29;20047;-82
2024/01/31 08:04:37;;;;;;;11.75;6.88;;;;;;;5.98;100.00;102794.25;4948778;29;20058;-81
2024/01/31 08:07:04;;;;;;;9.95;6.50;;;;;;;5.88;100.00;102781.72;4947837;29;20098;-81
2024/01/31 08:09:31;;;;;;;12.07;6.65;;;;;;;5.91;100.00;102787.66;4955194;29;20043;-83
2024/01/31 08:12:00;;;;;;;11.40;7.13;;;;;;;6.05;100.00;102793.97;4943790;29;20052;-80
2024/01/31 08:14:41;;;;;;;13.50;6.82;;;;;;;5.96;100.00;102785.69;4950809;29;20138;-80
2024/01/31 08:17:11;;;;;;;12.93;7.47;;;;;;;6.06;100.00;102799.09;4949010;29;20059;-80
2024/01/31 08:19:44;;;;;;;13.02;7.32;;;;;;;6.06;100.00;102796.47;4953493;29;20057;-79
2024/01/31 08:22:12;;;;;;;12.55;7.57;;;;;;;6.08;100.00;102799.84;4936687;29;20058;-81
2024/01/31 08:24:41;;;;;;;14.18;8.43;;;;;;;6.04;100.00;102808.72;4951670;29;20056;-81
2024/01/31 08:27:08;;;;;;;15.93;8.85;;;;;;;6.13;100.00;102816.06;4948498;29;20061;-80
2024/01/31 08:29:41;;;;;;;17.25;8.43;;;;;;;6.07;100.00;102826.75;4951554;29;20114;-81
2024/01/31 08:34:52;;;;;;;16.73;9.45;;;;;;;6.13;100.00;102836.88;4957811;29;20134;-81
2024/01/31 08:37:21;;;;;;;19.00;10.20;;;;;;;6.19;100.00;102828.75;4945329;29;20051;-81
2024/01/31 08:39:48;;;;;;;20.67;10.65;;;;;;;6.19;100.00;102838.31;4953600;29;20540;-81
2024/01/31 08:42:14;;;;;;;22.00;11.85;;;;;;;6.27;100.00;102850.03;4956213;29;20083;-82
2024/01/31 08:44:41;;;;;;;24.23;11.32;;;;;;;6.27;100.00;102839.63;4946810;29;20058;-82
2024/01/31 08:47:09;;;;;;;22.25;11.30;;;;;;;6.32;100.00;102853.25;4948829;29;20308;-81
2024/01/31 08:49:40;;;;;;;21.00;11.55;;;;;;;6.25;100.00;102846.66;4950556;29;20059;-81
2024/01/31 08:52:15;;;;;;;21.77;11.38;;;;;;;6.30;100.00;102851.63;4948453;29;20107;-81
2024/01/31 08:54:48;;;;;;;24.50;11.90;;;;;;;6.30;100.00;102852.47;4943548;29;20057;-80
2024/01/31 08:57:17;;;;;;;;;;;;;;;6.43;100.00;102857.94;4940691;29;20059;-80
2024/01/31 08:59:46;;;;;;;24.13;12.38;;;;;;;6.46;100.00;102862.97;4955579;29;19922;-80
2024/01/31 09:02:19;;;;;;;25.98;13.65;;;;;;;6.41;100.00;102866.72;4953800;29;20134;-80
2024/01/31 09:04:48;;;;;;;;;;;;;;;6.44;100.00;102867.41;4960359;29;20067;-80
2024/01/31 09:07:15;;;;;;;26.20;14.00;;;;;;;6.50;100.00;102869.72;4949462;29;19922;-80
2024/01/31 09:09:42;;;;;;;29.13;15.40;;;;;;;6.52;100.00;102875.69;4941856;29;20507;-80
2024/01/31 09:12:09;;;;;;;33.08;15.18;;;;;;;6.47;100.00;102882.03;4953182;29;20171;-81
2024/01/31 09:14:38;;;;;;;22.83;13.05;;;;;;;6.55;100.00;102888.53;4943802;29;20111;-80
2024/01/31 09:17:05;;;;;;;21.45;11.93;;;;;;;6.57;100.00;102891.06;4953746;29;20093;-78
2024/01/31 09:19:37;;;;;;;22.85;11.35;;;;;;;6.56;100.00;102878.97;4950773;29;20073;-80
2024/01/31 09:22:05;;;;;;;21.15;11.35;;;;;;;6.54;100.00;102876.47;4942331;29;20118;-81
2024/01/31 09:24:39;;;;;;;27.88;12.18;;;;;;;6.53;100.00;102882.56;4947959;29;20047;-82
2024/01/31 09:27:06;;;;;;;28.02;12.82;;;;;;;6.56;100.00;102884.19;4921689;29;20056;-80
2024/01/31 09:29:35;;;;;;;27.25;12.85;;;;;;;6.62;100.00;102886.47;4953422;29;20055;-81
2024/01/31 09:32:08;;;;;;;27.63;14.15;;;;;;;6.55;100.00;102861.69;4942411;29;20506;-80
2024/01/31 09:34:36;;;;;;;;;;;;;;;6.66;100.00;102872.38;4939365;29;20451;-80
2024/01/31 09:37:06;;;;;;;30.75;13.90;;;;;;;6.60;100.00;102857.09;4944754;28;19923;-80
2024/01/31 09:39:35;;;;;;;26.25;14.05;;;;;;;6.61;100.00;102856.19;4950471;29;20123;-81
2024/01/31 09:42:02;;;;;;;30.85;13.68;;;;;;;6.61;100.00;102848.38;4953949;29;20062;-80
2024/01/31 09:44:31;;;;;;;24.83;13.50;;;;;;;6.69;100.00;102859.22;4960213;29;20051;-81
2024/01/31 09:47:00;;;;;;;31.27;16.30;;;;;;;6.75;100.00;102863.28;4950534;29;20048;-81
2024/01/31 09:49:26;;;;;;;27.33;14.60;;;;;;;6.73;100.00;102854.72;4957450;29;20106;-81
2024/01/31 09:51:59;;;;;;;29.45;14.73;;;;;;;6.77;100.00;102851.88;4952488;29;20054;-80
2024/01/31 09:54:26;;;;;;;;;;;;;;;6.78;100.00;102840.56;4958633;29;20114;-81
2024/01/31 09:56:53;;;;;;;33.30;16.80;;;;;;;6.74;100.00;102828.63;4950848;29;20389;-81
2024/01/31 09:59:20;;;;;;;31.80;16.10;;;;;;;6.75;100.00;102829.47;4949419;29;20126;-81
2024/01/31 10:01:48;;;;;;;34.97;16.58;;;;;;;6.77;100.00;102830.22;4952683;29;20056;-81
2024/01/31 10:04:23;;;;;;;35.60;16.30;;;;;;;6.75;100.00;102817.28;4946880;29;20060;-81
2024/01/31 10:06:58;;;;;;;34.35;16.83;;;;;;;6.97;100.00;102824.84;4961862;29;20055;-80
2024/01/31 10:09:28;;;;;;;32.80;16.25;;;;;;;7.04;100.00;102817.56;4965198;29;20059;-81
2024/01/31 10:11:55;;;;;;;37.67;18.63;;;;;;;7.03;100.00;102821.94;4959756;29;20062;-80
2024/01/31 10:14:23;;;;;;;36.33;19.52;;;;;;;7.10;100.00;102819.81;4962268;28;20502;-81
2024/01/31 10:16:49;;;;;;;39.33;19.10;;;;;;;7.13;100.00;102811.84;4955220;29;20499;-81
2024/01/31 10:19:19;;;;;;;37.92;18.85;;;;;;;7.25;100.00;102817.25;4948348;29;20114;-80
2024/01/31 10:21:46;;;;;;;41.22;20.08;;;;;;;7.26;100.00;102802.47;4966945;29;20062;-80
2024/01/31 10:24:16;;;;;;;40.40;21.13;;;;;;;7.16;100.00;102790.88;4957446;29;20056;-81
2024/01/31 10:26:48;;;;;;;42.45;21.52;;;;;;;7.19;100.00;102808.94;4951780;29;20051;-81
2024/01/31 10:29:15;;;;;;;40.70;21.97;;;;;;;7.31;100.00;102805.69;4961492;29;20509;-81
2024/01/31 10:31:46;;;;;;;37.72;21.48;;;;;;;7.38;100.00;102799.22;4953001;29;20091;-81
2024/01/31 10:34:16;;;;;;;40.60;21.35;;;;;;;7.43;100.00;102796.38;4948865;29;20051;-81
2024/01/31 10:36:44;;;;;;;37.30;22.02;;;;;;;7.43;100.00;102786.81;4941584;29;20071;-81
2024/01/31 10:39:14;;;;;;;35.63;20.60;;;;;;;7.61;100.00;102796.19;4949913;29;20075;-81
2024/01/31 10:41:45;;;;;;;36.05;19.92;;;;;;;7.67;100.00;102782.00;4948958;29;20481;-82
2024/01/31 10:44:14;;;;;;;33.35;20.15;;;;;;;7.71;100.00;102772.25;4953052;29;20398;-81
2024/01/31 10:46:42;;;;;;;32.58;19.83;;;;;;;7.79;100.00;102760.47;4953955;29;20082;-81
2024/01/31 10:49:11;;;;;;;31.17;18.52;;;;;;;7.75;100.00;102747.69;4952557;29;20122;-82
2024/01/31 10:51:40;;;;;;;34.20;19.42;;;;;;;7.79;100.00;102744.00;4943661;29;20044;-82
2024/01/31 10:54:17;;;;;;;30.50;18.25;;;;;;;7.91;100.00;102727.66;4948777;29;20083;-81
2024/01/31 10:56:53;;;;;;;29.13;16.75;;;;;;;7.87;100.00;102721.78;4955139;29;20058;-82
2024/01/31 10:59:21;;;;;;;27.95;16.73;;;;;;;7.85;100.00;102713.22;4952273;29;20490;-81
2024/01/31 11:01:54;;;;;;;24.50;15.77;;;;;;;7.97;100.00;102704.69;4946018;29;20470;-81
2024/01/31 11:04:26;;;;;;;23.85;15.23;;;;;;;8.10;100.00;102706.56;4955410;29;20107;-81
2024/01/31 11:06:53;;;;;;;23.73;15.70;;;;;;;7.98;100.00;102692.50;4950255;29;20091;-81
2024/01/31 11:09:22;;;;;;;20.40;13.25;;;;;;;8.02;100.00;102675.75;4942012;29;20474;-81
2024/01/31 11:12:01;;;;;;;18.58;12.55;;;;;;;7.98;100.00;102669.03;4944135;29;20130;-81
2024/01/31 11:14:37;;;;;;;22.33;13.65;;;;;;;8.10;100.00;102655.25;4940860;29;20214;-81
2024/01/31 11:17:16;;;;;;;18.95;12.90;;;;;;;8.18;100.00;102647.81;4941110;29;20055;-80
2024/01/31 11:19:51;;;;;;;19.08;11.90;;;;;;;8.10;99.95;102631.78;4952490;29;20047;-82
2024/01/31 11:22:25;;;;;;;19.98;12.63;;;;;;;8.23;99.40;102635.34;4950448;29;20047;-82
2024/01/31 11:25:00;;;;;;;17.25;11.63;;;;;;;8.45;97.83;102639.31;4954188;29;20047;-82
2024/01/31 11:27:40;;;;;;;16.05;11.20;;;;;;;8.63;96.86;102638.16;4946994;29;20489;-81
2024/01/31 11:30:12;;;;;;;15.27;10.90;;;;;;;8.68;95.40;102635.28;4950608;29;20074;-83
2024/01/31 11:32:42;;;;;;;13.73;7.97;;;;;;;8.37;94.01;102615.47;4954133;29;20044;-83
2024/01/31 11:35:09;;;;;;;12.80;9.55;;;;;;;8.41;94.11;102607.34;4949573;29;20114;-82
2024/01/31 11:37:36;;;;;;;17.08;9.70;;;;;;;8.36;92.91;102613.78;4952182;29;20058;-81
2024/01/31 11:40:06;;;;;;;14.45;9.93;;;;;;;8.58;92.30;102622.78;4944198;29;20443;-81
2024/01/31 11:42:35;;;;;;;11.85;8.55;;;;;;;8.63;90.46;102612.06;4948400;29;20067;-82
2024/01/31 11:45:04;;;;;;;11.25;8.35;;;;;;;8.70;89.43;102620.38;4951144;29;20050;-81
2024/01/31 11:47:37;;;;;;;11.68;8.93;;;;;;;8.67;87.74;102621.41;4951636;29;20099;-82
2024/01/31 11:50:07;;;;;;;9.27;7.28;;;;;;;8.58;87.00;102621.97;4945939;29;20126;-81
2024/01/31 11:52:34;;;;;;;9.25;7.20;;;;;;;8.51;85.72;102618.88;4954372;29;20051;-81
2024/01/31 11:55:01;;;;;;;10.00;6.55;;;;;;;8.57;85.82;102622.88;4962541;28;20066;-82
2024/01/31 11:57:27;;;;;;;8.23;6.75;;;;;;;8.58;83.92;102616.75;4955099;29;20082;-81
2024/01/31 11:59:55;;;;;;;8.77;6.25;;;;;;;8.57;83.37;102613.28;4957120;29;20087;-81
2024/01/31 12:02:25;;;;;;;8.15;6.40;;;;;;;8.48;83.92;102618.25;4960372;29;20043;-82
2024/01/31 12:04:55;;;;;;;6.55;5.65;;;;;;;8.42;83.00;102603.81;4954038;28;20184;-82
2024/01/31 12:07:22;;;;;;;7.70;5.72;;;;;;;8.28;83.21;102599.41;4959412;29;20087;-81
2024/01/31 12:09:49;;;;;;;10.95;6.18;;;;;;;8.34;83.29;102605.22;4956153;29;20240;-82
2024/01/31 12:12:16;;;;;;;10.48;6.30;;;;;;;8.39;83.72;102608.38;4963401;29;20098;-82
2024/01/31 12:14:43;;;;;;;8.77;6.20;;;;;;;8.23;84.04;102598.84;4963103;29;20051;-83
2024/01/31 12:17:19;;;;;;;8.57;6.82;;;;;;;8.27;84.23;102595.13;4950042;29;20134;-82
2024/01/31 12:19:45;;;;;;;9.00;6.82;;;;;;;8.24;83.75;102592.69;4952799;29;20086;-82
2024/01/31 12:22:15;;;;;;;12.43;6.90;;;;;;;8.26;84.04;102596.03;4957031;29;20093;-82
2024/01/31 12:24:41;;;;;;;10.15;7.22;;;;;;;8.20;83.38;102580.78;4957858;29;20051;-82
2024/01/31 12:27:08;;;;;;;8.55;7.03;;;;;;;8.17;82.92;102583.56;4961160;29;20066;-82
2024/01/31 12:29:36;;;;;;;9.40;7.40;;;;;;;8.28;83.16;102582.91;4947708;29;20055;-83
2024/01/31 12:32:02;;;;;;;9.98;7.63;;;;;;;8.21;83.49;102589.44;4952686;29;20155;-83
2024/01/31 12:34:32;;;;;;;11.82;7.63;;;;;;;8.22;83.92;102586.72;4944025;29;20497;-83
2024/01/31 12:36:59;;;;;;;9.50;7.38;;;;;;;8.13;83.21;102566.41;4933662;29;20052;-83
2024/01/31 12:39:29;;;;;;;12.30;7.38;;;;;;;8.29;82.96;102564.56;4944687;29;20080;-84
2024/01/31 12:41:56;;;;;;;8.55;7.03;;;;;;;8.10;83.50;102555.34;4944663;29;20059;-83
2024/01/31 12:44:27;;;;;;;11.50;7.55;;;;;;;8.09;83.75;102558.88;4943699;29;20043;-83
2024/01/31 12:46:54;;;;;;;9.90;7.35;;;;;;;8.05;83.84;102542.56;4944635;29;20060;-83
2024/01/31 12:49:28;;;;;;;9.77;7.50;;;;;;;8.08;83.64;102551.97;4943811;29;20447;-82